sensor_id;sensor_type;location;lat;lon;timestamp;P1;durP1;ratioP1;P2;durP2;ratioP2
7693;SDS011;3889;48.162;11.510;2023-05-18T00:01:49;9.27;;;6.43;;
7693;SDS011;3889;48.162;11.510;2023-05-18T00:04:19;9.25;;;7.07;;
7693;SDS011;3889;48.162;11.510;2023-05-18T00:06:50;9.40;;;7.40;;
7693;SDS011;3889;48.162;11.510;2023-05-18T00:09:22;7.83;;;6.57;;
7693;SDS011;3889;48.162;11.510;2023-05-18T00:11:50;8.47;;;6.97;;
7693;SDS011;3889;48.162;11.510;2023-05-18T00:14:18;8.18;;;7.07;;
7693;SDS011;3889;48.162;11.510;2023-05-18T00:16:47;8.70;;;6.95;;
7693;SDS011;3889;48.162;11.510;2023-05-18T00:19:15;8.85;;;7.47;;
7693;SDS011;3889;48.162;11.510;2023-05-18T00:21:43;7.97;;;7.15;;
7693;SDS011;3889;48.162;11.510;2023-05-18T00:24:13;7.80;;;6.80;;
7693;SDS011;3889;48.162;11.510;2023-05-18T00:26:42;7.85;;;7.00;;
7693;SDS011;3889;48.162;11.510;2023-05-18T00:29:11;7.47;;;6.72;;
7693;SDS011;3889;48.162;11.510;2023-05-18T00:31:39;9.30;;;7.35;;
7693;SDS011;3889;48.162;11.510;2023-05-18T00:34:10;9.40;;;7.00;;
7693;SDS011;3889;48.162;11.510;2023-05-18T00:36:39;8.60;;;7.53;;
7693;SDS011;3889;48.162;11.510;2023-05-18T00:39:07;9.25;;;7.40;;
7693;SDS011;3889;48.162;11.510;2023-05-18T00:41:36;8.60;;;6.80;;
7693;SDS011;3889;48.162;11.510;2023-05-18T00:44:04;7.63;;;6.82;;
7693;SDS011;3889;48.162;11.510;2023-05-18T00:46:32;8.45;;;6.95;;
7693;SDS011;3889;48.162;11.510;2023-05-18T00:49:00;7.97;;;6.75;;
7693;SDS011;3889;48.162;11.510;2023-05-18T00:51:30;8.23;;;7.10;;
7693;SDS011;3889;48.162;11.510;2023-05-18T00:53:59;9.40;;;7.40;;
7693;SDS011;3889;48.162;11.510;2023-05-18T00:56:28;8.25;;;7.07;;
7693;SDS011;3889;48.162;11.510;2023-05-18T00:59:01;7.83;;;6.67;;
7693;SDS011;3889;48.162;11.510;2023-05-18T01:01:30;7.73;;;6.90;;
7693;SDS011;3889;48.162;11.510;2023-05-18T01:04:00;8.25;;;7.22;;
7693;SDS011;3889;48.162;11.510;2023-05-18T01:06:29;9.63;;;7.35;;
7693;SDS011;3889;48.162;11.510;2023-05-18T01:09:02;8.35;;;6.90;;
7693;SDS011;3889;48.162;11.510;2023-05-18T01:11:32;8.90;;;7.35;;
7693;SDS011;3889;48.162;11.510;2023-05-18T01:14:17;8.25;;;7.25;;
7693;SDS011;3889;48.162;11.510;2023-05-18T01:16:52;8.47;;;7.00;;
7693;SDS011;3889;48.162;11.510;2023-05-18T01:19:29;7.88;;;7.07;;
7693;SDS011;3889;48.162;11.510;2023-05-18T01:22:22;9.00;;;7.40;;
7693;SDS011;3889;48.162;11.510;2023-05-18T01:25:04;8.88;;;7.30;;
7693;SDS011;3889;48.162;11.510;2023-05-18T01:27:46;8.10;;;7.20;;
7693;SDS011;3889;48.162;11.510;2023-05-18T01:30:15;8.13;;;7.10;;
7693;SDS011;3889;48.162;11.510;2023-05-18T01:32:44;9.50;;;7.40;;
7693;SDS011;3889;48.162;11.510;2023-05-18T01:35:12;9.75;;;7.30;;
7693;SDS011;3889;48.162;11.510;2023-05-18T01:37:40;8.53;;;7.50;;
7693;SDS011;3889;48.162;11.510;2023-05-18T01:40:08;9.23;;;7.43;;
7693;SDS011;3889;48.162;11.510;2023-05-18T01:42:37;8.65;;;6.90;;
7693;SDS011;3889;48.162;11.510;2023-05-18T01:45:15;9.02;;;7.22;;
7693;SDS011;3889;48.162;11.510;2023-05-18T01:47:47;9.32;;;7.07;;
7693;SDS011;3889;48.162;11.510;2023-05-18T01:50:18;8.23;;;6.97;;
7693;SDS011;3889;48.162;11.510;2023-05-18T01:52:51;9.55;;;7.10;;
7693;SDS011;3889;48.162;11.510;2023-05-18T01:55:24;9.05;;;7.65;;
7693;SDS011;3889;48.162;11.510;2023-05-18T01:57:57;10.15;;;7.47;;
7693;SDS011;3889;48.162;11.510;2023-05-18T02:00:28;9.32;;;7.47;;
7693;SDS011;3889;48.162;11.510;2023-05-18T02:02:56;9.60;;;7.37;;
7693;SDS011;3889;48.162;11.510;2023-05-18T02:05:24;8.55;;;7.10;;
7693;SDS011;3889;48.162;11.510;2023-05-18T02:07:52;8.70;;;7.55;;
7693;SDS011;3889;48.162;11.510;2023-05-18T02:10:21;7.47;;;6.70;;
7693;SDS011;3889;48.162;11.510;2023-05-18T02:12:48;10.05;;;7.22;;
7693;SDS011;3889;48.162;11.510;2023-05-18T02:15:18;8.75;;;6.88;;
7693;SDS011;3889;48.162;11.510;2023-05-18T02:17:47;9.68;;;7.32;;
7693;SDS011;3889;48.162;11.510;2023-05-18T02:20:15;9.32;;;6.97;;
7693;SDS011;3889;48.162;11.510;2023-05-18T02:22:44;9.55;;;6.75;;
7693;SDS011;3889;48.162;11.510;2023-05-18T02:25:12;8.82;;;7.15;;
7693;SDS011;3889;48.162;11.510;2023-05-18T02:27:40;9.55;;;7.55;;
7693;SDS011;3889;48.162;11.510;2023-05-18T02:30:08;8.32;;;7.30;;
7693;SDS011;3889;48.162;11.510;2023-05-18T02:32:41;10.65;;;7.50;;
7693;SDS011;3889;48.162;11.510;2023-05-18T02:35:14;9.50;;;7.38;;
7693;SDS011;3889;48.162;11.510;2023-05-18T02:37:43;9.35;;;7.90;;
7693;SDS011;3889;48.162;11.510;2023-05-18T02:40:12;10.20;;;7.72;;
7693;SDS011;3889;48.162;11.510;2023-05-18T02:42:41;9.82;;;7.85;;
7693;SDS011;3889;48.162;11.510;2023-05-18T02:45:09;9.50;;;8.07;;
7693;SDS011;3889;48.162;11.510;2023-05-18T02:47:37;10.50;;;8.25;;
7693;SDS011;3889;48.162;11.510;2023-05-18T02:50:06;10.80;;;8.40;;
7693;SDS011;3889;48.162;11.510;2023-05-18T02:52:35;10.30;;;8.05;;
7693;SDS011;3889;48.162;11.510;2023-05-18T02:55:04;10.02;;;8.15;;
7693;SDS011;3889;48.162;11.510;2023-05-18T02:57:32;9.65;;;8.23;;
7693;SDS011;3889;48.162;11.510;2023-05-18T03:00:00;9.75;;;8.52;;
7693;SDS011;3889;48.162;11.510;2023-05-18T03:02:28;10.02;;;8.50;;
7693;SDS011;3889;48.162;11.510;2023-05-18T03:04:56;9.80;;;8.80;;
7693;SDS011;3889;48.162;11.510;2023-05-18T03:07:23;11.73;;;8.70;;
7693;SDS011;3889;48.162;11.510;2023-05-18T03:09:54;10.50;;;9.40;;
7693;SDS011;3889;48.162;11.510;2023-05-18T03:12:21;10.85;;;8.88;;
7693;SDS011;3889;48.162;11.510;2023-05-18T03:14:49;10.98;;;9.32;;
7693;SDS011;3889;48.162;11.510;2023-05-18T03:17:17;9.35;;;8.32;;
7693;SDS011;3889;48.162;11.510;2023-05-18T03:19:45;11.98;;;9.23;;
7693;SDS011;3889;48.162;11.510;2023-05-18T03:22:13;10.75;;;9.20;;
7693;SDS011;3889;48.162;11.510;2023-05-18T03:24:42;10.30;;;9.30;;
7693;SDS011;3889;48.162;11.510;2023-05-18T03:27:11;10.17;;;9.07;;
7693;SDS011;3889;48.162;11.510;2023-05-18T03:29:41;10.73;;;9.43;;
7693;SDS011;3889;48.162;11.510;2023-05-18T03:32:10;10.77;;;8.98;;
7693;SDS011;3889;48.162;11.510;2023-05-18T03:34:37;9.63;;;8.73;;
7693;SDS011;3889;48.162;11.510;2023-05-18T03:37:05;10.20;;;8.90;;
7693;SDS011;3889;48.162;11.510;2023-05-18T03:39:33;9.88;;;8.88;;
7693;SDS011;3889;48.162;11.510;2023-05-18T03:42:01;11.32;;;9.02;;
7693;SDS011;3889;48.162;11.510;2023-05-18T03:44:30;10.23;;;9.15;;
7693;SDS011;3889;48.162;11.510;2023-05-18T03:46:58;10.38;;;9.35;;
7693;SDS011;3889;48.162;11.510;2023-05-18T03:49:26;10.80;;;9.70;;
7693;SDS011;3889;48.162;11.510;2023-05-18T03:51:55;10.93;;;9.40;;
7693;SDS011;3889;48.162;11.510;2023-05-18T03:54:22;9.77;;;8.88;;
7693;SDS011;3889;48.162;11.510;2023-05-18T03:56:50;10.10;;;9.10;;
7693;SDS011;3889;48.162;11.510;2023-05-18T03:59:19;10.40;;;9.38;;
7693;SDS011;3889;48.162;11.510;2023-05-18T04:01:48;9.85;;;8.85;;
7693;SDS011;3889;48.162;11.510;2023-05-18T04:04:19;10.80;;;9.70;;
7693;SDS011;3889;48.162;11.510;2023-05-18T04:06:48;10.35;;;9.35;;
7693;SDS011;3889;48.162;11.510;2023-05-18T04:09:17;10.63;;;9.50;;
7693;SDS011;3889;48.162;11.510;2023-05-18T04:11:46;10.40;;;9.30;;
7693;SDS011;3889;48.162;11.510;2023-05-18T04:14:14;10.15;;;8.77;;
7693;SDS011;3889;48.162;11.510;2023-05-18T04:16:42;10.50;;;9.27;;
7693;SDS011;3889;48.162;11.510;2023-05-18T04:19:11;10.43;;;9.30;;
7693;SDS011;3889;48.162;11.510;2023-05-18T04:21:40;11.13;;;9.57;;
7693;SDS011;3889;48.162;11.510;2023-05-18T04:24:08;10.40;;;9.05;;
7693;SDS011;3889;48.162;11.510;2023-05-18T04:26:39;10.43;;;9.43;;
7693;SDS011;3889;48.162;11.510;2023-05-18T04:29:07;10.35;;;9.30;;
7693;SDS011;3889;48.162;11.510;2023-05-18T04:31:38;11.23;;;9.60;;
7693;SDS011;3889;48.162;11.510;2023-05-18T04:34:09;13.05;;;10.20;;
7693;SDS011;3889;48.162;11.510;2023-05-18T04:36:39;10.27;;;9.25;;
7693;SDS011;3889;48.162;11.510;2023-05-18T04:39:08;11.00;;;9.43;;
7693;SDS011;3889;48.162;11.510;2023-05-18T04:41:37;10.30;;;9.32;;
7693;SDS011;3889;48.162;11.510;2023-05-18T04:44:07;10.60;;;9.25;;
7693;SDS011;3889;48.162;11.510;2023-05-18T04:46:35;10.27;;;9.25;;
7693;SDS011;3889;48.162;11.510;2023-05-18T04:49:05;10.25;;;9.20;;
7693;SDS011;3889;48.162;11.510;2023-05-18T04:51:35;9.68;;;8.75;;
7693;SDS011;3889;48.162;11.510;2023-05-18T04:54:03;10.00;;;9.00;;
7693;SDS011;3889;48.162;11.510;2023-05-18T04:56:34;10.05;;;8.63;;
7693;SDS011;3889;48.162;11.510;2023-05-18T04:59:02;10.05;;;8.98;;
7693;SDS011;3889;48.162;11.510;2023-05-18T05:01:30;9.98;;;9.07;;
7693;SDS011;3889;48.162;11.510;2023-05-18T05:03:58;9.60;;;8.60;;
7693;SDS011;3889;48.162;11.510;2023-05-18T05:06:25;9.27;;;8.30;;
7693;SDS011;3889;48.162;11.510;2023-05-18T05:08:55;9.80;;;8.67;;
7693;SDS011;3889;48.162;11.510;2023-05-18T05:11:23;10.40;;;8.55;;
7693;SDS011;3889;48.162;11.510;2023-05-18T05:13:51;10.55;;;9.10;;
7693;SDS011;3889;48.162;11.510;2023-05-18T05:16:19;9.85;;;8.93;;
7693;SDS011;3889;48.162;11.510;2023-05-18T05:18:47;9.77;;;8.88;;
7693;SDS011;3889;48.162;11.510;2023-05-18T05:21:15;9.77;;;8.77;;
7693;SDS011;3889;48.162;11.510;2023-05-18T05:23:42;9.82;;;8.82;;
7693;SDS011;3889;48.162;11.510;2023-05-18T05:26:12;11.07;;;9.57;;
7693;SDS011;3889;48.162;11.510;2023-05-18T05:28:40;10.15;;;8.88;;
7693;SDS011;3889;48.162;11.510;2023-05-18T05:31:08;9.38;;;8.55;;
7693;SDS011;3889;48.162;11.510;2023-05-18T05:33:36;9.57;;;8.65;;
7693;SDS011;3889;48.162;11.510;2023-05-18T05:36:04;10.10;;;9.00;;
7693;SDS011;3889;48.162;11.510;2023-05-18T05:38:33;9.68;;;8.77;;
7693;SDS011;3889;48.162;11.510;2023-05-18T05:41:01;9.73;;;8.63;;
7693;SDS011;3889;48.162;11.510;2023-05-18T05:43:30;9.15;;;8.25;;
7693;SDS011;3889;48.162;11.510;2023-05-18T05:45:58;10.43;;;8.57;;
7693;SDS011;3889;48.162;11.510;2023-05-18T05:48:26;10.80;;;8.27;;
7693;SDS011;3889;48.162;11.510;2023-05-18T05:50:54;9.45;;;8.05;;
7693;SDS011;3889;48.162;11.510;2023-05-18T05:53:22;9.63;;;8.30;;
7693;SDS011;3889;48.162;11.510;2023-05-18T05:55:50;9.18;;;7.95;;
7693;SDS011;3889;48.162;11.510;2023-05-18T05:58:17;8.48;;;7.68;;
7693;SDS011;3889;48.162;11.510;2023-05-18T06:00:47;8.38;;;7.20;;
7693;SDS011;3889;48.162;11.510;2023-05-18T06:03:16;8.32;;;7.53;;
7693;SDS011;3889;48.162;11.510;2023-05-18T06:05:44;8.43;;;7.03;;
7693;SDS011;3889;48.162;11.510;2023-05-18T06:08:11;7.95;;;6.53;;
7693;SDS011;3889;48.162;11.510;2023-05-18T06:10:40;7.35;;;6.53;;
7693;SDS011;3889;48.162;11.510;2023-05-18T06:13:08;9.15;;;7.47;;
7693;SDS011;3889;48.162;11.510;2023-05-18T06:15:36;8.02;;;6.88;;
7693;SDS011;3889;48.162;11.510;2023-05-18T06:18:06;9.83;;;7.33;;
7693;SDS011;3889;48.162;11.510;2023-05-18T06:20:36;8.35;;;6.60;;
7693;SDS011;3889;48.162;11.510;2023-05-18T06:23:03;8.87;;;6.70;;
7693;SDS011;3889;48.162;11.510;2023-05-18T06:25:31;7.60;;;6.35;;
7693;SDS011;3889;48.162;11.510;2023-05-18T06:28:00;7.77;;;6.40;;
7693;SDS011;3889;48.162;11.510;2023-05-18T06:30:28;9.27;;;6.30;;
7693;SDS011;3889;48.162;11.510;2023-05-18T06:32:56;7.45;;;6.25;;
7693;SDS011;3889;48.162;11.510;2023-05-18T06:35:25;8.03;;;6.50;;
7693;SDS011;3889;48.162;11.510;2023-05-18T06:37:53;7.40;;;6.40;;
7693;SDS011;3889;48.162;11.510;2023-05-18T06:40:21;9.70;;;6.50;;
7693;SDS011;3889;48.162;11.510;2023-05-18T06:42:49;9.20;;;6.33;;
7693;SDS011;3889;48.162;11.510;2023-05-18T06:45:17;7.40;;;6.53;;
7693;SDS011;3889;48.162;11.510;2023-05-18T06:47:45;9.65;;;6.10;;
7693;SDS011;3889;48.162;11.510;2023-05-18T06:50:13;9.85;;;6.68;;
7693;SDS011;3889;48.162;11.510;2023-05-18T06:52:42;8.05;;;6.55;;
7693;SDS011;3889;48.162;11.510;2023-05-18T06:55:10;9.20;;;7.13;;
7693;SDS011;3889;48.162;11.510;2023-05-18T06:57:40;8.70;;;7.00;;
7693;SDS011;3889;48.162;11.510;2023-05-18T07:00:08;8.20;;;6.63;;
7693;SDS011;3889;48.162;11.510;2023-05-18T07:02:37;7.63;;;6.85;;
7693;SDS011;3889;48.162;11.510;2023-05-18T07:05:06;7.95;;;6.70;;
7693;SDS011;3889;48.162;11.510;2023-05-18T07:07:34;9.70;;;6.67;;
7693;SDS011;3889;48.162;11.510;2023-05-18T07:10:05;8.93;;;6.95;;
7693;SDS011;3889;48.162;11.510;2023-05-18T07:12:33;9.38;;;6.07;;
7693;SDS011;3889;48.162;11.510;2023-05-18T07:15:01;12.25;;;7.97;;
7693;SDS011;3889;48.162;11.510;2023-05-18T07:17:30;10.55;;;7.20;;
7693;SDS011;3889;48.162;11.510;2023-05-18T07:19:58;8.47;;;6.93;;
7693;SDS011;3889;48.162;11.510;2023-05-18T07:22:26;8.53;;;6.47;;
7693;SDS011;3889;48.162;11.510;2023-05-18T07:24:53;7.47;;;5.72;;
7693;SDS011;3889;48.162;11.510;2023-05-18T07:27:23;7.63;;;6.53;;
7693;SDS011;3889;48.162;11.510;2023-05-18T07:29:51;7.78;;;5.80;;
7693;SDS011;3889;48.162;11.510;2023-05-18T07:32:19;8.60;;;6.15;;
7693;SDS011;3889;48.162;11.510;2023-05-18T07:34:47;9.15;;;5.60;;
7693;SDS011;3889;48.162;11.510;2023-05-18T07:37:14;8.02;;;5.78;;
7693;SDS011;3889;48.162;11.510;2023-05-18T07:39:42;8.38;;;5.47;;
7693;SDS011;3889;48.162;11.510;2023-05-18T07:42:10;8.20;;;5.35;;
7693;SDS011;3889;48.162;11.510;2023-05-18T07:44:39;8.77;;;6.00;;
7693;SDS011;3889;48.162;11.510;2023-05-18T07:47:07;8.13;;;5.78;;
7693;SDS011;3889;48.162;11.510;2023-05-18T07:49:35;7.32;;;5.32;;
7693;SDS011;3889;48.162;11.510;2023-05-18T07:52:04;7.82;;;5.00;;
7693;SDS011;3889;48.162;11.510;2023-05-18T07:54:33;8.57;;;5.20;;
7693;SDS011;3889;48.162;11.510;2023-05-18T07:57:01;8.05;;;5.22;;
7693;SDS011;3889;48.162;11.510;2023-05-18T07:59:30;8.77;;;5.00;;
7693;SDS011;3889;48.162;11.510;2023-05-18T08:02:00;7.22;;;5.05;;
7693;SDS011;3889;48.162;11.510;2023-05-18T08:04:28;7.18;;;5.30;;
7693;SDS011;3889;48.162;11.510;2023-05-18T08:06:56;6.85;;;5.25;;
7693;SDS011;3889;48.162;11.510;2023-05-18T08:09:25;7.82;;;5.18;;
7693;SDS011;3889;48.162;11.510;2023-05-18T08:11:54;9.57;;;5.73;;
7693;SDS011;3889;48.162;11.510;2023-05-18T08:14:24;7.78;;;5.38;;
7693;SDS011;3889;48.162;11.510;2023-05-18T08:16:54;7.63;;;5.22;;
7693;SDS011;3889;48.162;11.510;2023-05-18T08:19:28;7.75;;;5.15;;
7693;SDS011;3889;48.162;11.510;2023-05-18T08:21:56;10.37;;;5.40;;
7693;SDS011;3889;48.162;11.510;2023-05-18T08:24:24;9.10;;;5.35;;
7693;SDS011;3889;48.162;11.510;2023-05-18T08:26:52;8.25;;;5.30;;
7693;SDS011;3889;48.162;11.510;2023-05-18T08:29:20;8.95;;;5.15;;
7693;SDS011;3889;48.162;11.510;2023-05-18T08:31:49;8.57;;;5.32;;
7693;SDS011;3889;48.162;11.510;2023-05-18T08:34:17;9.43;;;4.60;;
7693;SDS011;3889;48.162;11.510;2023-05-18T08:36:47;7.40;;;4.88;;
7693;SDS011;3889;48.162;11.510;2023-05-18T08:39:15;7.25;;;4.93;;
7693;SDS011;3889;48.162;11.510;2023-05-18T08:41:47;9.10;;;5.00;;
7693;SDS011;3889;48.162;11.510;2023-05-18T08:44:25;8.23;;;4.60;;
7693;SDS011;3889;48.162;11.510;2023-05-18T08:46:57;7.22;;;5.22;;
7693;SDS011;3889;48.162;11.510;2023-05-18T08:49:25;9.07;;;5.88;;
7693;SDS011;3889;48.162;11.510;2023-05-18T08:51:56;9.23;;;5.05;;
7693;SDS011;3889;48.162;11.510;2023-05-18T08:54:29;7.05;;;4.50;;
7693;SDS011;3889;48.162;11.510;2023-05-18T08:56:58;6.53;;;4.38;;
7693;SDS011;3889;48.162;11.510;2023-05-18T08:59:29;8.00;;;4.65;;
7693;SDS011;3889;48.162;11.510;2023-05-18T09:01:59;6.72;;;4.53;;
7693;SDS011;3889;48.162;11.510;2023-05-18T09:04:27;8.10;;;4.63;;
7693;SDS011;3889;48.162;11.510;2023-05-18T09:06:58;8.57;;;5.28;;
7693;SDS011;3889;48.162;11.510;2023-05-18T09:09:28;7.10;;;4.57;;
7693;SDS011;3889;48.162;11.510;2023-05-18T09:11:58;7.28;;;4.07;;
7693;SDS011;3889;48.162;11.510;2023-05-18T09:14:26;8.68;;;4.70;;
7693;SDS011;3889;48.162;11.510;2023-05-18T09:16:54;8.75;;;5.03;;
7693;SDS011;3889;48.162;11.510;2023-05-18T09:19:22;6.88;;;4.28;;
7693;SDS011;3889;48.162;11.510;2023-05-18T09:21:50;7.30;;;3.90;;
7693;SDS011;3889;48.162;11.510;2023-05-18T09:24:20;6.93;;;4.28;;
7693;SDS011;3889;48.162;11.510;2023-05-18T09:26:50;8.45;;;3.90;;
7693;SDS011;3889;48.162;11.510;2023-05-18T09:29:18;7.63;;;4.50;;
7693;SDS011;3889;48.162;11.510;2023-05-18T09:31:47;5.95;;;4.25;;
7693;SDS011;3889;48.162;11.510;2023-05-18T09:34:15;6.90;;;4.30;;
7693;SDS011;3889;48.162;11.510;2023-05-18T09:36:45;7.87;;;4.47;;
7693;SDS011;3889;48.162;11.510;2023-05-18T09:39:15;8.55;;;4.38;;
7693;SDS011;3889;48.162;11.510;2023-05-18T09:41:44;6.90;;;4.47;;
7693;SDS011;3889;48.162;11.510;2023-05-18T09:44:12;9.10;;;4.80;;
7693;SDS011;3889;48.162;11.510;2023-05-18T09:46:40;7.28;;;4.57;;
7693;SDS011;3889;48.162;11.510;2023-05-18T09:49:08;5.93;;;4.53;;
7693;SDS011;3889;48.162;11.510;2023-05-18T09:51:36;9.70;;;4.68;;
7693;SDS011;3889;48.162;11.510;2023-05-18T09:54:05;9.23;;;5.07;;
7693;SDS011;3889;48.162;11.510;2023-05-18T09:56:35;6.80;;;4.80;;
7693;SDS011;3889;48.162;11.510;2023-05-18T09:59:08;6.05;;;4.57;;
7693;SDS011;3889;48.162;11.510;2023-05-18T10:01:36;7.15;;;4.88;;
7693;SDS011;3889;48.162;11.510;2023-05-18T10:04:21;7.95;;;4.82;;
7693;SDS011;3889;48.162;11.510;2023-05-18T10:06:49;8.30;;;4.72;;
7693;SDS011;3889;48.162;11.510;2023-05-18T10:09:17;10.00;;;4.50;;
7693;SDS011;3889;48.162;11.510;2023-05-18T10:11:46;6.95;;;4.63;;
7693;SDS011;3889;48.162;11.510;2023-05-18T10:14:17;9.13;;;4.68;;
7693;SDS011;3889;48.162;11.510;2023-05-18T10:16:50;8.38;;;4.95;;
7693;SDS011;3889;48.162;11.510;2023-05-18T10:19:28;8.38;;;4.82;;
7693;SDS011;3889;48.162;11.510;2023-05-18T10:21:59;6.88;;;4.20;;
7693;SDS011;3889;48.162;11.510;2023-05-18T10:24:29;8.88;;;4.75;;
7693;SDS011;3889;48.162;11.510;2023-05-18T10:27:00;9.20;;;5.00;;
7693;SDS011;3889;48.162;11.510;2023-05-18T10:29:35;8.00;;;4.30;;
7693;SDS011;3889;48.162;11.510;2023-05-18T10:32:03;7.18;;;4.60;;
7693;SDS011;3889;48.162;11.510;2023-05-18T10:34:33;7.88;;;4.35;;
7693;SDS011;3889;48.162;11.510;2023-05-18T10:37:03;8.10;;;4.60;;
7693;SDS011;3889;48.162;11.510;2023-05-18T10:39:35;6.68;;;4.45;;
7693;SDS011;3889;48.162;11.510;2023-05-18T10:42:03;7.70;;;3.90;;
7693;SDS011;3889;48.162;11.510;2023-05-18T10:44:36;6.67;;;4.17;;
7693;SDS011;3889;48.162;11.510;2023-05-18T10:47:06;9.27;;;4.23;;
7693;SDS011;3889;48.162;11.510;2023-05-18T10:49:36;7.23;;;4.30;;
7693;SDS011;3889;48.162;11.510;2023-05-18T10:52:06;9.35;;;4.28;;
7693;SDS011;3889;48.162;11.510;2023-05-18T10:54:37;8.82;;;4.63;;
7693;SDS011;3889;48.162;11.510;2023-05-18T10:57:09;6.43;;;4.00;;
7693;SDS011;3889;48.162;11.510;2023-05-18T10:59:42;7.97;;;4.50;;
7693;SDS011;3889;48.162;11.510;2023-05-18T11:02:14;7.10;;;4.07;;
7693;SDS011;3889;48.162;11.510;2023-05-18T11:04:45;6.70;;;3.60;;
7693;SDS011;3889;48.162;11.510;2023-05-18T11:07:13;7.45;;;4.50;;
7693;SDS011;3889;48.162;11.510;2023-05-18T11:09:42;6.35;;;4.05;;
7693;SDS011;3889;48.162;11.510;2023-05-18T11:12:11;5.22;;;3.45;;
7693;SDS011;3889;48.162;11.510;2023-05-18T11:14:47;7.93;;;4.43;;
7693;SDS011;3889;48.162;11.510;2023-05-18T11:17:17;6.13;;;3.70;;
7693;SDS011;3889;48.162;11.510;2023-05-18T11:22:43;6.45;;;3.85;;
7693;SDS011;3889;48.162;11.510;2023-05-18T11:28:09;7.88;;;4.40;;
7693;SDS011;3889;48.162;11.510;2023-05-18T11:30:46;5.97;;;3.67;;
7693;SDS011;3889;48.162;11.510;2023-05-18T11:33:20;7.30;;;3.65;;
7693;SDS011;3889;48.162;11.510;2023-05-18T11:35:56;6.60;;;3.70;;
7693;SDS011;3889;48.162;11.510;2023-05-18T11:38:49;6.80;;;3.70;;
7693;SDS011;3889;48.162;11.510;2023-05-18T11:41:26;5.53;;;3.40;;
7693;SDS011;3889;48.162;11.510;2023-05-18T11:44:04;5.57;;;3.60;;
7693;SDS011;3889;48.162;11.510;2023-05-18T11:46:51;6.10;;;3.72;;
7693;SDS011;3889;48.162;11.510;2023-05-18T11:49:21;5.28;;;3.58;;
7693;SDS011;3889;48.162;11.510;2023-05-18T11:51:55;4.65;;;3.50;;
7693;SDS011;3889;48.162;11.510;2023-05-18T11:54:27;5.43;;;3.40;;
7693;SDS011;3889;48.162;11.510;2023-05-18T11:56:59;7.70;;;3.30;;
7693;SDS011;3889;48.162;11.510;2023-05-18T11:59:30;4.90;;;3.10;;
7693;SDS011;3889;48.162;11.510;2023-05-18T12:02:01;5.97;;;3.47;;
7693;SDS011;3889;48.162;11.510;2023-05-18T12:04:30;5.82;;;3.55;;
7693;SDS011;3889;48.162;11.510;2023-05-18T12:06:59;6.22;;;3.63;;
7693;SDS011;3889;48.162;11.510;2023-05-18T12:09:31;5.43;;;3.22;;
7693;SDS011;3889;48.162;11.510;2023-05-18T12:12:00;4.82;;;3.40;;
7693;SDS011;3889;48.162;11.510;2023-05-18T12:14:28;6.90;;;3.85;;
7693;SDS011;3889;48.162;11.510;2023-05-18T12:16:58;4.80;;;3.75;;
7693;SDS011;3889;48.162;11.510;2023-05-18T12:19:28;6.47;;;3.33;;
7693;SDS011;3889;48.162;11.510;2023-05-18T12:21:56;6.88;;;3.53;;
7693;SDS011;3889;48.162;11.510;2023-05-18T12:24:24;6.90;;;3.40;;
7693;SDS011;3889;48.162;11.510;2023-05-18T12:26:52;6.47;;;3.47;;
7693;SDS011;3889;48.162;11.510;2023-05-18T12:29:21;5.13;;;2.80;;
7693;SDS011;3889;48.162;11.510;2023-05-18T12:31:49;5.60;;;3.00;;
7693;SDS011;3889;48.162;11.510;2023-05-18T12:34:17;5.70;;;3.53;;
7693;SDS011;3889;48.162;11.510;2023-05-18T12:36:53;6.65;;;3.40;;
7693;SDS011;3889;48.162;11.510;2023-05-18T12:39:23;6.38;;;3.80;;
7693;SDS011;3889;48.162;11.510;2023-05-18T12:42:02;6.63;;;3.47;;
7693;SDS011;3889;48.162;11.510;2023-05-18T12:44:35;6.13;;;3.70;;
7693;SDS011;3889;48.162;11.510;2023-05-18T12:47:03;6.00;;;3.47;;
7693;SDS011;3889;48.162;11.510;2023-05-18T12:49:35;5.23;;;3.53;;
7693;SDS011;3889;48.162;11.510;2023-05-18T12:52:08;6.45;;;3.40;;
7693;SDS011;3889;48.162;11.510;2023-05-18T12:54:47;4.67;;;3.20;;
7693;SDS011;3889;48.162;11.510;2023-05-18T12:57:20;4.32;;;2.78;;
7693;SDS011;3889;48.162;11.510;2023-05-18T12:59:51;4.95;;;2.90;;
7693;SDS011;3889;48.162;11.510;2023-05-18T13:02:26;3.78;;;2.50;;
7693;SDS011;3889;48.162;11.510;2023-05-18T13:05:00;4.30;;;3.00;;
7693;SDS011;3889;48.162;11.510;2023-05-18T13:07:35;4.20;;;3.38;;
7693;SDS011;3889;48.162;11.510;2023-05-18T13:10:05;6.60;;;4.03;;
7693;SDS011;3889;48.162;11.510;2023-05-18T13:12:37;4.93;;;3.27;;
7693;SDS011;3889;48.162;11.510;2023-05-18T13:15:08;8.40;;;3.25;;
7693;SDS011;3889;48.162;11.510;2023-05-18T13:17:46;5.03;;;2.60;;
7693;SDS011;3889;48.162;11.510;2023-05-18T13:20:16;5.68;;;3.00;;
7693;SDS011;3889;48.162;11.510;2023-05-18T13:22:45;5.18;;;2.92;;
7693;SDS011;3889;48.162;11.510;2023-05-18T13:25:16;6.32;;;3.40;;
7693;SDS011;3889;48.162;11.510;2023-05-18T13:27:44;6.72;;;3.50;;
7693;SDS011;3889;48.162;11.510;2023-05-18T13:30:13;5.80;;;3.30;;
7693;SDS011;3889;48.162;11.510;2023-05-18T13:32:45;5.82;;;3.38;;
7693;SDS011;3889;48.162;11.510;2023-05-18T13:35:13;5.28;;;4.75;;
7693;SDS011;3889;48.162;11.510;2023-05-18T13:37:44;4.93;;;3.25;;
7693;SDS011;3889;48.162;11.510;2023-05-18T13:40:14;5.93;;;3.60;;
7693;SDS011;3889;48.162;11.510;2023-05-18T13:42:43;4.78;;;3.28;;
7693;SDS011;3889;48.162;11.510;2023-05-18T13:45:12;5.18;;;3.50;;
7693;SDS011;3889;48.162;11.510;2023-05-18T13:47:41;5.18;;;3.28;;
7693;SDS011;3889;48.162;11.510;2023-05-18T13:50:11;5.82;;;3.47;;
7693;SDS011;3889;48.162;11.510;2023-05-18T13:52:39;6.38;;;3.50;;
7693;SDS011;3889;48.162;11.510;2023-05-18T13:55:08;8.25;;;4.78;;
7693;SDS011;3889;48.162;11.510;2023-05-18T13:57:37;5.65;;;3.60;;
7693;SDS011;3889;48.162;11.510;2023-05-18T14:00:06;5.60;;;3.47;;
7693;SDS011;3889;48.162;11.510;2023-05-18T14:02:38;5.65;;;3.85;;
7693;SDS011;3889;48.162;11.510;2023-05-18T14:05:08;7.07;;;3.42;;
7693;SDS011;3889;48.162;11.510;2023-05-18T14:07:36;7.15;;;4.40;;
7693;SDS011;3889;48.162;11.510;2023-05-18T14:10:06;6.40;;;4.00;;
7693;SDS011;3889;48.162;11.510;2023-05-18T14:12:37;6.30;;;3.45;;
7693;SDS011;3889;48.162;11.510;2023-05-18T14:15:07;6.78;;;3.67;;
7693;SDS011;3889;48.162;11.510;2023-05-18T14:17:36;6.45;;;3.83;;
7693;SDS011;3889;48.162;11.510;2023-05-18T14:20:04;6.80;;;3.80;;
7693;SDS011;3889;48.162;11.510;2023-05-18T14:22:33;5.25;;;3.25;;
7693;SDS011;3889;48.162;11.510;2023-05-18T14:25:01;6.38;;;3.78;;
7693;SDS011;3889;48.162;11.510;2023-05-18T14:27:31;6.20;;;3.92;;
7693;SDS011;3889;48.162;11.510;2023-05-18T14:29:59;5.63;;;3.53;;
7693;SDS011;3889;48.162;11.510;2023-05-18T14:32:27;6.30;;;3.60;;
7693;SDS011;3889;48.162;11.510;2023-05-18T14:34:55;5.43;;;3.63;;
7693;SDS011;3889;48.162;11.510;2023-05-18T14:37:23;5.75;;;3.65;;
7693;SDS011;3889;48.162;11.510;2023-05-18T14:39:51;8.30;;;5.10;;
7693;SDS011;3889;48.162;11.510;2023-05-18T14:42:19;5.78;;;3.55;;
7693;SDS011;3889;48.162;11.510;2023-05-18T14:44:48;4.68;;;3.00;;
7693;SDS011;3889;48.162;11.510;2023-05-18T14:47:16;6.10;;;3.35;;
7693;SDS011;3889;48.162;11.510;2023-05-18T14:49:44;6.20;;;3.40;;
7693;SDS011;3889;48.162;11.510;2023-05-18T14:52:12;6.80;;;3.38;;
7693;SDS011;3889;48.162;11.510;2023-05-18T14:54:40;5.65;;;3.50;;
7693;SDS011;3889;48.162;11.510;2023-05-18T14:57:08;5.15;;;3.38;;
7693;SDS011;3889;48.162;11.510;2023-05-18T14:59:36;7.50;;;3.60;;
7693;SDS011;3889;48.162;11.510;2023-05-18T15:02:05;4.80;;;3.30;;
7693;SDS011;3889;48.162;11.510;2023-05-18T15:04:34;7.00;;;3.90;;
7693;SDS011;3889;48.162;11.510;2023-05-18T15:07:02;6.00;;;3.20;;
7693;SDS011;3889;48.162;11.510;2023-05-18T15:09:31;7.40;;;3.75;;
7693;SDS011;3889;48.162;11.510;2023-05-18T15:11:59;4.38;;;3.30;;
7693;SDS011;3889;48.162;11.510;2023-05-18T15:14:27;4.93;;;3.40;;
7693;SDS011;3889;48.162;11.510;2023-05-18T15:16:55;5.53;;;3.63;;
7693;SDS011;3889;48.162;11.510;2023-05-18T15:19:25;4.53;;;3.40;;
7693;SDS011;3889;48.162;11.510;2023-05-18T15:21:53;5.72;;;3.83;;